Flight Track Log - Related Links

Times and Time Zones

All times are in EDT time to prevent confusion due to time zone crossing. See the SWA419 flight status page for this flight to view local times or setup timezone preferences in your user account.

Time Position Orientation Groundspeed Altitude Reporting Facility
EDT Latitude Longitude Course Direction KTS MPH feet Rate Location/Type
Tue 12:53:48 PM 37.4000 -121.9667 139° Southeast 195 224 1,900  Level Northern Cal TRACON
Tue 12:54:48 PM 37.4333 -121.9333 38° Northeast 248 285 4,300 2,700 Climbing Northern Cal TRACON
Tue 12:55:48 PM 37.4000 -121.8667 122° Southeast 258 297 7,300 2,850 Climbing Northern Cal TRACON
Tue 12:56:48 PM 37.3333 -121.8000 142° Southeast 298 343 10,000 2,579 Climbing Northern Cal TRACON
Tue 12:57:42 PM 37.2833 -121.7333 133° Southeast 334 384 12,200 2,259 Climbing Northern Cal TRACON
Tue 12:58:13 PM 37.2511 -121.7011 141° Southeast 341 392 13,200 2,674 Climbing Oakland Center
Tue 12:59:00 PM 36.7186 -121.2340 139° Southeast  Level Estimated
Tue 12:59:14 PM 37.1758 -121.6144 137° Southeast 368 423 16,300  Level Oakland Center
Tue 01:00:15 PM 37.0947 -121.5261 139° Southeast 388 447 18,300 2,439 Climbing Oakland Center
Tue 01:01:17 PM 37.0069 -121.4314 139° Southeast 403 464 21,300 2,488 Climbing Oakland Center
Tue 01:02:18 PM 36.9233 -121.3392 139° Southeast 403 464 23,400 1,951 Climbing Oakland Center
Tue 01:03:20 PM 36.8339 -121.2425 139° Southeast 424 488 25,300 1,902 Climbing Oakland Center
Tue 01:04:21 PM 36.7294 -121.1328 140° Southeast 428 493 27,300 1,659 Climbing Oakland Center
Tue 01:05:23 PM 36.6364 -121.0300 138° Southeast 441 507 28,700 1,512 Climbing Oakland Center
Tue 01:06:24 PM 36.5406 -120.9286 140° Southeast 451 519 30,400 1,707 Climbing Oakland Center
Tue 01:07:26 PM 36.4458 -120.8272 139° Southeast 450 518 32,200 1,707 Climbing Oakland Center
Tue 01:08:27 PM 36.3542 -120.7267 139° Southeast 442 509 33,900 1,610 Climbing Oakland Center
Tue 01:09:29 PM 36.2622 -120.6297 140° Southeast 435 501 35,500 1,317 Climbing Oakland Center
Tue 01:10:30 PM 36.1725 -120.5336 139° Southeast 429 494 36,600 732 Climbing Oakland Center
Tue 01:11:32 PM 36.0656 -120.4175 139° Southeast 426 490 37,000 195 Climbing Oakland Center
Tue 01:12:33 PM 35.9747 -120.3222 140° Southeast 428 493 37,000  Level Oakland Center
Tue 01:13:34 PM 35.8839 -120.2278 140° Southeast 426 490 37,000  Level Oakland Center
Tue 01:14:36 PM 35.7936 -120.1319 139° Southeast 426 490 37,000  Level Oakland Center
Tue 01:15:37 PM 35.7031 -120.0364 139° Southeast 426 490 37,000 -488 Level Oakland Center
Tue 01:16:39 PM 35.6106 -119.9425 140° Southeast 427 491 36,000 -976 Descending Oakland Center
Tue 01:17:40 PM 35.5094 -119.8581 146° Southeast 433 498 35,000 -927 Descending Oakland Center
Tue 01:18:42 PM 35.4106 -119.7733 145° Southeast 432 497 34,100 -902 Descending Oakland Center
Tue 01:19:53 PM 35.2903 -119.6692 145° Southeast 437 503 33,000 -947 Descending Los Angeles Center
Tue 01:20:55 PM 35.1881 -119.5822 145° Southeast 442 509 32,000 -912 Descending Los Angeles Center
Tue 01:21:58 PM 35.0850 -119.4950 145° Southeast 448 516 31,100 -1,104 Descending Los Angeles Center
Tue 01:23:00 PM 34.9644 -119.3944 146° Southeast 441 507 29,700 -1,113 Descending Los Angeles Center
Tue 01:24:02 PM 34.8675 -119.3122 145° Southeast 431 496 28,800 -1,258 Descending Los Angeles Center
Tue 01:25:04 PM 34.7711 -119.2289 145° Southeast 426 490 27,100 -1,984 Descending Los Angeles Center
Tue 01:26:06 PM 34.6742 -119.1492 146° Southeast 423 487 24,700 -2,323 Descending Los Angeles Center
Tue 01:27:08 PM 34.5817 -119.0678 144° Southeast 410 472 22,300 -2,274 Descending Los Angeles Center
Tue 01:28:10 PM 34.4928 -118.9942 146° Southeast 387 445 20,000 -2,177 Descending Los Angeles Center
Tue 01:29:12 PM 34.4061 -118.9225 146° Southeast 378 435 17,800 -2,371 Descending Los Angeles Center
Tue 01:30:14 PM 34.3000 -118.8592 154° Southeast 356 410 15,100 -2,323 Descending Los Angeles Center
Tue 01:31:16 PM 34.2078 -118.8269 164° South 348 400 13,000 -1,920 Descending Los Angeles Center
Tue 01:32:19 PM 34.1192 -118.7944 163° South 335 386 11,100 -1,440 Descending Los Angeles Center
Tue 01:33:21 PM 34.0394 -118.7372 149° Southeast 319 367 10,000 -726 Descending Los Angeles Center
Tue 01:34:23 PM 34.0272 -118.6308 98° East 297 342 9,600 -968 Descending Los Angeles Center
Tue 01:35:25 PM 34.0169 -118.5314 97° East 298 343 8,000 -1,306 Descending Los Angeles Center
Tue 01:36:27 PM 34.0164 -118.4369 90° East 278 320 6,900 -677 Descending Los Angeles Center
Tue 01:37:29 PM 34.0222 -118.3581 85° East 241 277 6,600 -726 Descending Los Angeles Center
Tue 01:38:31 PM 34.0267 -118.2911 85° East 210 242 5,400 -1,452 Descending Los Angeles Center
Tue 01:39:33 PM 34.0011 -118.2517 128° Southeast 201 231 3,600 -1,548 Descending Los Angeles Center
Tue 01:40:35 PM 33.9650 -118.2856 218° Southwest 182 209 2,200 -1,210 Descending Los Angeles Center
Tue 01:41:37 PM 33.9581 -118.3436 262° West 156 180 1,100 -864 Descending Los Angeles Center
Tue 01:42:40 PM 33.9544 -118.3897 265° West 146 168 400 -384 Descending Los Angeles Center
Tue 01:43:42 PM 33.9486 -118.4344 261° West 144 166 300 -97 Descending Los Angeles Center
Tue 01:45:00 PM 33.9425 -118.4081 90° East  Level Estimated
Tue 01:52:00 PM 33.9425 -118.4081 228° Southwest  Level Estimated

Login

Don't have an account? Register now (free) for customized features, flight alerts, and more!